createdAt,value
2023-01-26T00:01:09.907Z,36.67
2023-01-26T00:03:37.403Z,31.60
2023-01-26T00:06:11.585Z,30.73
2023-01-26T00:08:42.734Z,29.77
2023-01-26T00:11:10.891Z,28.83
2023-01-26T00:13:38.418Z,30.27
2023-01-26T00:16:06.529Z,31.53
2023-01-26T00:18:33.752Z,30.73
2023-01-26T00:21:02.024Z,29.20
2023-01-26T00:23:30.648Z,29.60
2023-01-26T00:25:57.970Z,30.93
2023-01-26T00:28:25.290Z,28.70
2023-01-26T00:31:03.020Z,27.97
2023-01-26T00:33:30.439Z,28.70
2023-01-26T00:35:57.699Z,32.17
2023-01-26T00:38:24.928Z,33.87
2023-01-26T00:40:52.268Z,35.87
2023-01-26T00:43:19.393Z,36.40
2023-01-26T00:45:46.587Z,34.80
2023-01-26T00:48:14.244Z,36.00
2023-01-26T00:50:41.403Z,34.90
2023-01-26T00:53:08.611Z,29.70
2023-01-26T00:55:35.865Z,28.00
2023-01-26T00:58:04.409Z,28.70
2023-01-26T01:00:32.315Z,27.87
2023-01-26T01:02:59.793Z,29.00
2023-01-26T01:05:28.319Z,28.70
2023-01-26T01:07:55.645Z,26.13
2023-01-26T01:10:23.052Z,26.30
2023-01-26T01:12:50.293Z,24.67
2023-01-26T01:15:17.907Z,24.77
2023-01-26T01:17:45.084Z,23.80
2023-01-26T01:20:12.708Z,23.57
2023-01-26T01:22:40.373Z,21.60
2023-01-26T01:25:07.688Z,21.20
2023-01-26T01:27:34.846Z,21.73
2023-01-26T01:30:07.698Z,21.23
2023-01-26T01:32:39.776Z,22.17
2023-01-26T01:35:07.346Z,21.70
2023-01-26T01:37:34.685Z,21.30
2023-01-26T01:40:01.877Z,21.70
2023-01-26T01:42:29.225Z,20.67
2023-01-26T01:45:15.160Z,22.47
2023-01-26T01:47:42.385Z,22.87
2023-01-26T01:50:12.842Z,21.53
2023-01-26T01:52:40.794Z,21.57
2023-01-26T01:55:10.381Z,20.43
2023-01-26T01:57:47.264Z,21.20
2023-01-26T02:00:15.941Z,21.57
2023-01-26T02:02:44.932Z,22.43
2023-01-26T02:05:19.739Z,24.70
2023-01-26T02:07:47.143Z,23.93
2023-01-26T02:10:20.641Z,24.00
2023-01-26T02:12:49.622Z,22.90
2023-01-26T02:15:16.905Z,24.57
2023-01-26T02:17:44.144Z,25.53
2023-01-26T02:20:11.870Z,23.20
2023-01-26T02:22:39.176Z,24.27
2023-01-26T02:25:11.905Z,24.80
2023-01-26T02:27:39.079Z,23.23
2023-01-26T02:30:06.951Z,22.93
2023-01-26T02:32:34.635Z,24.40
2023-01-26T02:35:01.826Z,23.17
2023-01-26T02:37:29.051Z,23.73
2023-01-26T02:40:00.427Z,23.60
2023-01-26T02:42:41.188Z,25.40
2023-01-26T02:45:16.042Z,24.23
2023-01-26T02:47:44.924Z,27.40
2023-01-26T02:50:13.167Z,25.27
2023-01-26T02:52:41.292Z,25.57
2023-01-26T02:55:28.411Z,23.67
2023-01-26T02:57:57.190Z,22.63
2023-01-26T03:00:25.984Z,23.03
2023-01-26T03:02:54.471Z,23.93
2023-01-26T03:05:22.001Z,26.73
2023-01-26T03:07:49.374Z,24.73
2023-01-26T03:10:17.407Z,23.37
2023-01-26T03:12:45.176Z,22.17
2023-01-26T03:15:31.482Z,22.43
2023-01-26T03:18:21.259Z,21.07
2023-01-26T03:21:06.970Z,21.97
2023-01-26T03:23:53.125Z,21.53
2023-01-26T03:26:39.000Z,20.50
2023-01-26T03:29:06.148Z,21.00
2023-01-26T03:31:33.370Z,18.93
2023-01-26T03:34:00.584Z,19.57
2023-01-26T03:36:27.784Z,18.47
2023-01-26T03:38:54.982Z,19.20
2023-01-26T03:41:40.961Z,19.40
2023-01-26T03:44:26.979Z,20.37
2023-01-26T03:47:12.919Z,18.93
2023-01-26T03:49:58.779Z,20.50
2023-01-26T03:52:44.607Z,19.33
2023-01-26T03:55:30.600Z,18.20
2023-01-26T03:57:58.290Z,20.10
2023-01-26T04:00:25.435Z,20.37
2023-01-26T04:03:11.451Z,20.93
2023-01-26T04:05:57.518Z,22.33
2023-01-26T04:08:44.732Z,20.60
2023-01-26T04:11:11.925Z,21.20
2023-01-26T04:13:57.800Z,19.37
2023-01-26T04:16:43.913Z,16.97
2023-01-26T04:19:30.028Z,17.07
2023-01-26T04:21:57.271Z,18.43
2023-01-26T04:24:24.690Z,17.67
2023-01-26T04:26:52.022Z,16.07
2023-01-26T04:29:19.238Z,17.43
2023-01-26T04:31:46.509Z,16.97
2023-01-26T04:34:15.209Z,15.50
2023-01-26T04:36:42.877Z,16.73
2023-01-26T04:39:10.408Z,15.93
2023-01-26T04:41:37.569Z,16.43
2023-01-26T04:44:04.844Z,17.83
2023-01-26T04:46:33.292Z,16.77
2023-01-26T04:49:00.479Z,15.93
2023-01-26T04:51:28.312Z,15.67
2023-01-26T04:53:55.593Z,16.10
2023-01-26T04:56:25.789Z,15.83
2023-01-26T04:58:53.721Z,15.80
2023-01-26T05:01:21.060Z,16.63
2023-01-26T05:03:48.545Z,17.17
2023-01-26T05:06:15.786Z,15.70
2023-01-26T05:08:42.950Z,15.37
2023-01-26T05:11:10.173Z,15.10
2023-01-26T05:13:37.516Z,15.50
2023-01-26T05:16:05.453Z,14.63
2023-01-26T05:18:32.913Z,14.93
2023-01-26T05:21:00.335Z,14.87
2023-01-26T05:23:27.548Z,16.47
2023-01-26T05:25:54.731Z,14.57
2023-01-26T05:28:21.946Z,24.33
2023-01-26T05:30:49.510Z,23.37
2023-01-26T05:33:16.894Z,21.17
2023-01-26T05:35:44.270Z,19.37
2023-01-26T05:38:11.523Z,18.03
2023-01-26T05:40:38.689Z,20.00
2023-01-26T05:43:05.890Z,29.83
2023-01-26T05:45:33.115Z,30.67
2023-01-26T05:48:00.332Z,30.20
2023-01-26T05:50:27.669Z,28.03
2023-01-26T05:52:55.158Z,22.83
2023-01-26T05:55:22.325Z,20.27
2023-01-26T05:57:49.729Z,16.67
2023-01-26T06:00:17.125Z,17.00
2023-01-26T06:02:45.889Z,13.60
2023-01-26T06:05:14.210Z,15.27
2023-01-26T06:07:41.327Z,16.70
2023-01-26T06:10:09.053Z,23.27
2023-01-26T06:12:38.599Z,23.13
2023-01-26T06:15:06.547Z,22.63
2023-01-26T06:17:33.799Z,18.53
2023-01-26T06:20:01.022Z,16.47
2023-01-26T06:22:28.224Z,17.03
2023-01-26T06:24:55.389Z,16.60
2023-01-26T06:27:22.699Z,15.33
2023-01-26T06:29:49.899Z,16.17
2023-01-26T06:32:17.110Z,14.97
2023-01-26T06:34:44.334Z,14.67
2023-01-26T06:37:11.659Z,15.13
2023-01-26T06:39:38.891Z,16.20
2023-01-26T06:42:06.452Z,16.17
2023-01-26T06:44:33.636Z,16.77
2023-01-26T06:47:00.787Z,15.17
2023-01-26T06:49:28.731Z,15.03
2023-01-26T06:51:58.988Z,15.10
2023-01-26T06:54:26.265Z,15.43
2023-01-26T06:56:53.467Z,16.07
2023-01-26T06:59:21.162Z,15.50
2023-01-26T07:01:49.066Z,14.93
2023-01-26T07:04:16.912Z,15.63
2023-01-26T07:06:44.072Z,15.10
2023-01-26T07:09:11.646Z,15.93
2023-01-26T07:11:38.824Z,15.40
2023-01-26T07:14:06.227Z,16.80
2023-01-26T07:16:33.940Z,15.73
2023-01-26T07:19:01.616Z,16.20
2023-01-26T07:21:28.829Z,15.63
2023-01-26T07:23:56.515Z,15.07
2023-01-26T07:26:23.814Z,15.57
2023-01-26T07:28:50.981Z,15.07
2023-01-26T07:31:18.314Z,15.17
2023-01-26T07:33:45.615Z,14.37
2023-01-26T07:36:13.033Z,15.07
2023-01-26T07:38:40.473Z,15.70
2023-01-26T07:41:12.042Z,15.33
2023-01-26T07:43:40.075Z,13.67
2023-01-26T07:46:07.364Z,14.87
2023-01-26T07:48:34.684Z,15.37
2023-01-26T07:51:03.622Z,15.43
2023-01-26T07:53:34.188Z,15.17
2023-01-26T07:56:12.370Z,16.43
2023-01-26T07:58:40.233Z,14.37
2023-01-26T08:01:14.949Z,16.57
2023-01-26T08:03:42.243Z,15.37
2023-01-26T08:06:12.139Z,15.20
2023-01-26T08:08:42.652Z,15.00
2023-01-26T08:11:10.350Z,14.27
2023-01-26T08:13:37.691Z,15.07
2023-01-26T08:16:06.420Z,15.67
2023-01-26T08:18:33.588Z,14.93
2023-01-26T08:21:00.768Z,16.07
2023-01-26T08:23:28.183Z,14.67
2023-01-26T08:25:55.409Z,15.20
2023-01-26T08:28:22.704Z,13.63
2023-01-26T08:30:49.963Z,14.63
2023-01-26T08:33:17.308Z,18.07
2023-01-26T08:35:44.571Z,19.60
2023-01-26T08:38:11.889Z,15.67
2023-01-26T08:40:39.091Z,16.50
2023-01-26T08:43:06.437Z,15.83
2023-01-26T08:45:33.696Z,13.67
2023-01-26T08:48:00.897Z,16.43
2023-01-26T08:50:28.671Z,14.20
2023-01-26T08:52:56.912Z,13.67
2023-01-26T08:55:24.241Z,12.63
2023-01-26T08:57:55.342Z,11.97
2023-01-26T09:00:23.441Z,13.03
2023-01-26T09:02:50.840Z,15.00
2023-01-26T09:05:18.216Z,14.20
2023-01-26T09:07:45.567Z,12.67
2023-01-26T09:10:13.475Z,11.97
2023-01-26T09:12:41.281Z,11.53
2023-01-26T09:15:09.214Z,12.80
2023-01-26T09:17:37.389Z,15.13
2023-01-26T09:20:05.945Z,13.43
2023-01-26T09:22:33.138Z,13.13
2023-01-26T09:25:00.434Z,12.20
2023-01-26T09:27:27.911Z,13.70
2023-01-26T09:29:55.955Z,12.50
2023-01-26T09:32:23.679Z,15.40
2023-01-26T09:34:50.807Z,16.63
2023-01-26T09:37:17.996Z,14.67
2023-01-26T09:39:45.220Z,14.17
2023-01-26T09:42:31.146Z,15.30
2023-01-26T09:45:13.986Z,15.10
2023-01-26T09:47:42.114Z,13.43
2023-01-26T09:50:15.162Z,14.27
2023-01-26T09:52:45.356Z,12.60
2023-01-26T09:55:15.986Z,13.47
2023-01-26T09:58:04.519Z,12.00
2023-01-26T10:00:34.097Z,11.60
2023-01-26T10:03:08.259Z,11.73
2023-01-26T10:05:38.544Z,12.93
2023-01-26T10:08:10.319Z,13.10
2023-01-26T10:10:39.957Z,12.47
2023-01-26T10:13:07.121Z,11.70
2023-01-26T10:15:39.360Z,12.87
2023-01-26T10:18:33.051Z,11.83
2023-01-26T10:21:02.110Z,12.13
2023-01-26T10:23:29.264Z,12.87
2023-01-26T10:26:08.141Z,12.90
2023-01-26T10:28:36.399Z,13.77
2023-01-26T10:31:05.185Z,13.23
2023-01-26T10:33:36.440Z,13.80
2023-01-26T10:36:06.161Z,13.53
2023-01-26T10:38:33.339Z,16.30
2023-01-26T10:41:01.306Z,20.17
2023-01-26T10:43:28.506Z,17.43
2023-01-26T10:45:55.674Z,16.43
2023-01-26T10:48:26.623Z,15.63
2023-01-26T10:50:54.654Z,15.40
2023-01-26T10:53:28.319Z,14.73
2023-01-26T10:56:02.614Z,13.30
2023-01-26T10:58:47.947Z,14.77
2023-01-26T11:01:16.627Z,15.90
2023-01-26T11:04:04.613Z,14.83
2023-01-26T11:06:32.332Z,15.80
2023-01-26T11:09:32.059Z,15.90
2023-01-26T11:12:03.065Z,15.43
2023-01-26T11:14:31.640Z,15.20
2023-01-26T11:17:22.473Z,15.13
2023-01-26T11:19:56.556Z,15.17
2023-01-26T11:22:32.445Z,14.60
2023-01-26T11:25:23.403Z,14.90
2023-01-26T11:27:51.379Z,14.67
2023-01-26T11:30:41.921Z,13.67
2023-01-26T11:33:22.128Z,13.63
2023-01-26T11:35:58.103Z,12.07
2023-01-26T11:38:25.238Z,12.63
2023-01-26T11:40:59.797Z,13.50
2023-01-26T11:43:45.654Z,13.87
2023-01-26T11:46:12.890Z,11.77
2023-01-26T11:48:43.074Z,12.47
2023-01-26T11:51:28.696Z,12.53
2023-01-26T11:54:14.724Z,14.73
2023-01-26T11:56:44.973Z,14.53
2023-01-26T11:59:16.219Z,13.87
2023-01-26T12:01:52.363Z,12.10
2023-01-26T12:04:20.690Z,12.80
2023-01-26T12:07:11.592Z,14.23
2023-01-26T12:09:47.243Z,13.00
2023-01-26T12:12:17.698Z,13.17
2023-01-26T12:14:49.009Z,12.73
2023-01-26T12:17:19.151Z,12.60
2023-01-26T12:19:50.387Z,11.40
2023-01-26T12:22:23.623Z,13.73
2023-01-26T12:27:55.882Z,12.30
2023-01-26T12:30:26.343Z,13.73
2023-01-26T12:32:53.705Z,14.40
2023-01-26T12:35:28.269Z,16.77
2023-01-26T12:38:17.669Z,14.07
2023-01-26T12:41:10.143Z,12.57
2023-01-26T12:43:43.232Z,13.13
2023-01-26T12:46:11.160Z,13.70
2023-01-26T12:48:45.821Z,14.00
2023-01-26T12:51:19.849Z,13.70
2023-01-26T12:53:46.991Z,13.73
2023-01-26T12:56:17.898Z,14.47
2023-01-26T12:58:46.620Z,12.87
2023-01-26T13:01:18.716Z,12.70
2023-01-26T13:03:51.677Z,11.20
2023-01-26T13:06:25.999Z,12.40
2023-01-26T13:09:00.720Z,12.17
2023-01-26T13:11:40.190Z,11.73
2023-01-26T13:14:24.775Z,12.13
2023-01-26T13:16:52.034Z,12.60
2023-01-26T13:19:38.080Z,12.93
2023-01-26T13:22:25.231Z,12.67
2023-01-26T13:24:59.591Z,13.00
2023-01-26T13:27:45.287Z,13.13
2023-01-26T13:30:25.057Z,14.03
2023-01-26T13:32:53.358Z,13.10
2023-01-26T13:35:22.571Z,14.73
2023-01-26T13:37:50.012Z,13.67
2023-01-26T13:40:22.126Z,13.93
2023-01-26T13:42:52.303Z,13.33
2023-01-26T13:45:37.962Z,12.07
2023-01-26T13:48:08.589Z,13.73
2023-01-26T13:50:39.827Z,13.67
2023-01-26T13:53:25.599Z,12.30
2023-01-26T13:55:55.654Z,10.90
2023-01-26T13:58:23.321Z,11.40
2023-01-26T14:01:04.841Z,11.50
2023-01-26T14:03:32.401Z,11.43
2023-01-26T14:05:59.595Z,11.53
2023-01-26T14:08:28.253Z,12.33
2023-01-26T14:10:56.068Z,12.07
2023-01-26T14:13:32.594Z,13.00
2023-01-26T14:16:01.000Z,13.07
2023-01-26T14:18:28.480Z,13.10
2023-01-26T14:21:00.470Z,12.80
2023-01-26T14:23:28.907Z,13.77
2023-01-26T14:26:01.529Z,14.33
2023-01-26T14:28:34.702Z,14.73
2023-01-26T14:31:17.528Z,14.70
2023-01-26T14:33:45.143Z,14.27
2023-01-26T14:36:20.821Z,14.57
2023-01-26T14:38:49.388Z,14.43
2023-01-26T14:41:28.514Z,14.60
2023-01-26T14:43:59.543Z,15.70
2023-01-26T14:46:36.619Z,14.90
2023-01-26T14:49:07.450Z,15.57
2023-01-26T14:51:35.402Z,15.03
2023-01-26T14:54:05.256Z,14.47
2023-01-26T14:56:34.658Z,14.90
2023-01-26T14:59:02.847Z,15.80
2023-01-26T15:01:30.364Z,16.60
2023-01-26T15:04:16.694Z,16.93
2023-01-26T15:06:43.842Z,15.80
2023-01-26T15:09:26.579Z,16.93
2023-01-26T15:12:18.913Z,17.20
2023-01-26T15:14:46.174Z,16.70
2023-01-26T15:17:27.905Z,17.67
2023-01-26T15:19:55.086Z,16.80
2023-01-26T15:22:24.170Z,17.57
2023-01-26T15:25:01.672Z,18.87
2023-01-26T15:27:35.818Z,17.40
2023-01-26T15:30:04.485Z,16.00
2023-01-26T15:32:33.421Z,17.90
2023-01-26T15:35:06.035Z,16.80
2023-01-26T15:37:34.925Z,17.87
2023-01-26T15:40:02.182Z,17.50
2023-01-26T15:42:31.240Z,16.93
2023-01-26T15:44:58.901Z,18.00
2023-01-26T15:47:27.029Z,17.27
2023-01-26T15:49:54.259Z,16.93
2023-01-26T15:52:25.856Z,16.53
2023-01-26T15:54:54.035Z,16.43
2023-01-26T15:57:21.212Z,16.23
2023-01-26T15:59:48.407Z,17.07
2023-01-26T16:02:16.808Z,16.77
2023-01-26T16:04:44.251Z,20.30
2023-01-26T16:07:12.819Z,22.13
2023-01-26T16:09:40.156Z,18.77
2023-01-26T16:12:11.462Z,17.40
2023-01-26T16:14:40.374Z,16.23
2023-01-26T16:17:14.198Z,18.93
2023-01-26T16:19:41.793Z,19.00
2023-01-26T16:22:12.622Z,18.93
2023-01-26T16:24:40.148Z,19.27
2023-01-26T16:27:07.532Z,19.33
2023-01-26T16:29:35.170Z,19.60
2023-01-26T16:32:02.428Z,18.17
2023-01-26T16:34:30.147Z,18.47
2023-01-26T16:36:57.384Z,17.90
2023-01-26T16:39:24.526Z,17.33
2023-01-26T16:41:51.744Z,18.63
2023-01-26T16:44:19.673Z,17.87
2023-01-26T16:46:47.131Z,17.57
2023-01-26T16:49:15.777Z,17.97
2023-01-26T16:51:44.135Z,17.03
2023-01-26T16:54:12.619Z,17.77
2023-01-26T16:56:40.035Z,16.47
2023-01-26T16:59:07.194Z,17.23
2023-01-26T17:01:36.529Z,16.87
2023-01-26T17:04:04.178Z,16.80
2023-01-26T17:06:31.423Z,16.73
2023-01-26T17:08:58.944Z,15.97
2023-01-26T17:11:28.360Z,17.73
2023-01-26T17:13:56.202Z,17.40
2023-01-26T17:16:29.452Z,17.50
2023-01-26T17:18:56.973Z,15.97
2023-01-26T17:21:24.458Z,15.73
2023-01-26T17:23:52.493Z,15.83
2023-01-26T17:26:20.535Z,15.50
2023-01-26T17:28:49.175Z,16.33
2023-01-26T17:31:17.998Z,16.53
2023-01-26T17:33:46.105Z,17.30
2023-01-26T17:36:14.184Z,16.67
2023-01-26T17:38:41.802Z,16.73
2023-01-26T17:41:09.094Z,17.67
2023-01-26T17:43:36.490Z,16.63
2023-01-26T17:46:06.734Z,16.50
2023-01-26T17:48:34.564Z,18.17
2023-01-26T17:51:01.761Z,17.97
2023-01-26T17:53:29.045Z,18.33
2023-01-26T17:55:56.242Z,16.80
2023-01-26T17:58:23.452Z,17.00
2023-01-26T18:00:50.692Z,20.70
2023-01-26T18:03:18.074Z,17.73
2023-01-26T18:05:52.048Z,18.20
2023-01-26T18:08:20.728Z,17.73
2023-01-26T18:10:47.945Z,20.83
2023-01-26T18:13:15.495Z,18.80
2023-01-26T18:15:44.438Z,20.33
2023-01-26T18:18:15.784Z,18.77
2023-01-26T18:20:42.977Z,26.70
2023-01-26T18:23:10.186Z,24.80
2023-01-26T18:25:37.469Z,22.10
2023-01-26T18:28:06.743Z,22.50
2023-01-26T18:30:35.485Z,24.83
2023-01-26T18:33:02.886Z,23.47
2023-01-26T18:35:30.066Z,21.67
2023-01-26T18:37:57.481Z,21.03
2023-01-26T18:40:25.095Z,19.50
2023-01-26T18:42:56.049Z,18.77
2023-01-26T18:45:23.427Z,17.47
2023-01-26T18:47:51.296Z,18.87
2023-01-26T18:50:18.902Z,17.90
2023-01-26T18:52:47.991Z,18.00
2023-01-26T18:55:18.873Z,18.67
2023-01-26T18:57:46.165Z,18.60
2023-01-26T19:00:14.029Z,17.67
2023-01-26T19:02:41.370Z,18.47
2023-01-26T19:05:09.016Z,18.27
2023-01-26T19:07:36.532Z,18.33
2023-01-26T19:10:06.075Z,16.57
2023-01-26T19:12:33.442Z,18.80
2023-01-26T19:15:04.494Z,17.10
2023-01-26T19:17:31.734Z,17.00
2023-01-26T19:19:58.946Z,19.27
2023-01-26T19:22:26.168Z,17.67
2023-01-26T19:24:53.621Z,17.97
2023-01-26T19:27:21.331Z,20.77
2023-01-26T19:29:51.503Z,20.13
2023-01-26T19:35:14.647Z,19.13
2023-01-26T19:37:42.069Z,17.53
2023-01-26T19:40:09.789Z,20.50
2023-01-26T19:43:23.969Z,19.43
2023-01-26T19:45:55.875Z,18.40
2023-01-26T19:48:24.746Z,17.93
2023-01-26T19:51:05.854Z,17.47
2023-01-26T19:53:33.928Z,17.63
2023-01-26T19:56:05.544Z,14.87
2023-01-26T19:58:32.695Z,14.83
2023-01-26T20:01:00.757Z,14.80
2023-01-26T20:03:28.031Z,16.07
2023-01-26T20:05:55.626Z,15.27
2023-01-26T20:08:22.828Z,17.30
2023-01-26T20:10:50.025Z,17.33
2023-01-26T20:13:17.327Z,16.93
2023-01-26T20:15:44.770Z,16.77
2023-01-26T20:18:11.951Z,13.93
2023-01-26T20:20:39.464Z,14.20
2023-01-26T20:23:07.775Z,16.10
2023-01-26T20:25:36.753Z,14.13
2023-01-26T20:28:04.727Z,15.93
2023-01-26T20:30:31.975Z,14.40
2023-01-26T20:33:00.898Z,16.40
2023-01-26T20:35:28.237Z,16.27
2023-01-26T20:37:55.675Z,15.17
2023-01-26T20:40:23.713Z,20.00
2023-01-26T20:42:51.339Z,17.50
2023-01-26T20:45:19.182Z,15.47
2023-01-26T20:47:49.736Z,16.80
2023-01-26T20:50:17.505Z,15.30
2023-01-26T20:52:44.902Z,14.83
2023-01-26T20:55:15.576Z,15.27
2023-01-26T20:57:42.784Z,13.47
2023-01-26T21:00:11.070Z,15.07
2023-01-26T21:02:38.876Z,14.43
2023-01-26T21:05:07.211Z,14.27
2023-01-26T21:07:34.465Z,16.10
2023-01-26T21:10:01.654Z,15.80
2023-01-26T21:12:28.839Z,16.40
2023-01-26T21:14:56.312Z,15.17
2023-01-26T21:17:25.581Z,14.63
2023-01-26T21:19:53.121Z,13.17
2023-01-26T21:22:20.997Z,14.63
2023-01-26T21:24:48.145Z,13.80
2023-01-26T21:27:15.390Z,14.90
2023-01-26T21:29:42.611Z,14.50
2023-01-26T21:32:09.897Z,14.00
2023-01-26T21:34:37.091Z,14.43
2023-01-26T21:37:04.285Z,13.87
2023-01-26T21:39:31.504Z,14.57
2023-01-26T21:41:59.655Z,14.53
2023-01-26T21:44:28.597Z,12.77
2023-01-26T21:47:02.943Z,13.50
2023-01-26T21:49:30.638Z,13.17
2023-01-26T21:52:16.934Z,13.10
2023-01-26T21:54:44.144Z,13.33
2023-01-26T21:57:38.277Z,13.57
2023-01-26T22:00:05.674Z,13.03
2023-01-26T22:02:32.871Z,12.97
2023-01-26T22:05:00.025Z,12.57
2023-01-26T22:07:28.121Z,13.43
2023-01-26T22:09:55.481Z,12.37
2023-01-26T22:12:23.067Z,12.70
2023-01-26T22:14:52.400Z,13.10
2023-01-26T22:17:20.474Z,12.50
2023-01-26T22:19:47.608Z,12.63
2023-01-26T22:22:30.085Z,14.43
2023-01-26T22:24:57.564Z,12.90
2023-01-26T22:27:24.844Z,13.80
2023-01-26T22:29:52.032Z,13.43
2023-01-26T22:32:19.194Z,14.87
2023-01-26T22:34:46.568Z,14.03
2023-01-26T22:37:14.615Z,15.07
2023-01-26T22:39:43.154Z,13.17
2023-01-26T22:42:10.437Z,14.00
2023-01-26T22:44:37.599Z,15.87
2023-01-26T22:47:04.806Z,15.37
2023-01-26T22:49:35.711Z,15.37
2023-01-26T22:52:09.833Z,16.70
2023-01-26T22:54:37.034Z,14.93
2023-01-26T22:57:04.272Z,15.77
2023-01-26T22:59:31.673Z,15.73
2023-01-26T23:01:59.191Z,16.03
2023-01-26T23:04:26.542Z,16.73
2023-01-26T23:06:53.842Z,16.70
2023-01-26T23:09:21.110Z,16.17
2023-01-26T23:11:48.273Z,16.50
2023-01-26T23:14:15.425Z,15.07
2023-01-26T23:16:42.656Z,15.60
2023-01-26T23:19:09.833Z,13.30
2023-01-26T23:21:37.011Z,13.40
2023-01-26T23:24:04.601Z,13.03
2023-01-26T23:26:31.780Z,13.13
2023-01-26T23:28:58.976Z,13.10
2023-01-26T23:31:26.283Z,13.23
2023-01-26T23:33:53.465Z,13.40
2023-01-26T23:36:20.924Z,15.07
2023-01-26T23:38:48.163Z,13.70
2023-01-26T23:41:15.637Z,14.80
2023-01-26T23:43:43.051Z,14.10
2023-01-26T23:46:11.395Z,14.87
2023-01-26T23:48:38.747Z,14.10
2023-01-26T23:51:07.346Z,14.70
2023-01-26T23:53:35.184Z,12.50
2023-01-26T23:56:09.910Z,12.63
2023-01-26T23:58:38.002Z,12.40
